Parsons Landing, Santa Catalina Island Weather observations

Data are for 10 minute period ending at time listed.
 Day   Time   Solar   Ave.   Ave.  Ave.  Vector    Max.   Stn.   Total 
  of    of     Rad.   Air    Rel.  Wind   Wind     Wind   Baro. Precip. 
Year   Day            Temp.  Hum.  Speed  Dir.     Gust   Pres.         
2014   (PST)   W/m2    F      %     mph   deg.      mph    mb.    in.   
------------------------------------------------------------------------
 257   21:40    0.0    88   36.7     7    291.1    13.1    999.0   0.00  
 257   21:50    0.0    81   57.5     4    358.4     7.2    999.0   0.00  
 257   22:00    0.0    76   68.2     3    346.7     5.4    999.0   0.00  
 257   22:10    0.0    75   73.7     5     75.1     6.6    999.0   0.00  
 257   22:20    0.0    74   76.9     4     72.7     4.8    999.0   0.00  
 257   22:30    0.0    73   80.1     2    323.3     5.4    999.0   0.00  
 257   22:40    0.0    72   82.7     1    122.8     2.4    999.0   0.00  
 257   22:50    0.0    72   83.3     2    181.1     3.6    999.0   0.00  
 257   23:00    0.0    72   81.7     2    162.0     3.6    999.0   0.00  
 257   23:10    0.0    73   75.4     2    133.7     3.6    999.0   0.00  
 257   23:20    0.0    74   71.3     2    171.6     3.0    999.0   0.00  
 257   23:30    0.0    75   70.1     2    324.0     3.0    999.0   0.00  
 257   23:40    0.0    74   72.1     1    268.9     2.4    999.0   0.00  
 257   23:50    0.0    73   75.8     2    228.5     3.0    999.0   0.00  
 258    0:00    0.0    73   75.6     2    232.0     3.6    999.0   0.00  
 258    0:10    0.0    74   76.7     2    348.2     4.2    999.0   0.00  
 258    0:20    0.0    73   80.0     1    207.4     2.4    999.0   0.00  
 258    0:30    0.0    71   79.2     1    215.6     1.8    999.0   0.00  
 258    0:40    0.0    72   76.5     2    208.8     3.0    999.0   0.00  
 258    0:50    0.0    74   72.5     2    325.2     3.6    999.0   0.00  
 258    1:00    0.0    74   71.8     2    236.0     3.6    999.0   0.00  
 258    1:10    0.0    73   75.9     2    308.2     3.0    999.0   0.00  
 258    1:20    0.0    73   76.9     2     86.3     3.6    999.0   0.00  
 258    1:30    0.0    73   75.3     2    108.8     4.2    999.0   0.00  
 258    1:40    0.0    74   71.5     4    104.2     4.8    999.0   0.00  
 258    1:50    0.0    73   71.8     3    140.4     6.0    999.0   0.00  
 258    2:00    0.0    73   75.9     4    122.6     4.8    999.0   0.00  
 258    2:10    0.0    73   75.5     4    118.8     4.8    999.0   0.00  
 258    2:20    0.0    73   75.5     3    118.2     4.8    999.0   0.00  
 258    2:30    0.0    74   76.7     4    105.7     6.0    999.0   0.00  
 258    2:40    0.0    73   76.5     3    140.3     4.2    999.0   0.00  
 258    2:50    0.0    74   72.0     2    225.1     2.4    999.0   0.00  
 258    3:00    0.0    75   71.3     3    102.0     4.2    999.0   0.00  
 258    3:10    0.0    73   75.1     3    124.4     4.2    999.0   0.00  
 258    3:20    0.0    74   73.4     3     86.3     5.4    999.0   0.00  
 258    3:30    0.0    73   76.3     3    114.7     5.4    999.0   0.00  
 258    3:40    0.0    73   77.0     3    110.0     5.4    999.0   0.00  
 258    3:50    0.0    72   78.1     3    146.5     4.2    999.0   0.00  
 258    4:00    0.0    72   81.4     4    118.5     5.4    999.0   0.00  
 258    4:10    0.0    72   84.5     4    119.9     4.8    999.0   0.00  
 258    4:20    0.0    71   85.9     3    107.8     4.8    999.0   0.00  
 258    4:30    0.0    71   86.6     3    121.7     4.2    999.0   0.00  
 258    4:40    0.0    71   87.0     3    129.7     4.2    999.0   0.00  
 258    4:50    0.0    70   86.3     3    143.5     3.0    999.0   0.00  
 258    5:00    0.0    70   85.2     3    126.4     4.8    999.0   0.00  
 258    5:10    0.0    70   84.1     3    133.1     5.4    999.0   0.00  
 258    5:20    0.0    70   83.4     2    137.6     3.6    999.0   0.00  
 258    5:30    2.0    71   83.8     2    174.9     3.6    999.0   0.00  
 258    5:40    3.0    71   82.5     1    237.5     2.4    999.0   0.00  
 258    5:50    7.0    71   81.6     2    251.7     4.2    999.0   0.00  
 258    6:00   18.0    72   82.5     2    237.3     3.0    999.0   0.00  
 258    6:10   35.0    72   83.2     2    293.4     3.0    999.0   0.00  
 258    6:20   59.0    72   83.2     2    260.3     3.0    999.0   0.00  
 258    6:30   85.0    73   83.3     2    251.5     3.0    999.0   0.00  
 258    6:40  109.0    74   82.1     2     39.9     3.6    999.0   0.00  
 258    6:50  135.0    76   80.1     2     61.8     3.6    999.0   0.00  
 258    7:00  160.0    76   79.2     3    351.0     4.2    999.0   0.00  
 258    7:10  186.0    75   81.4     3    347.5     4.2    999.0   0.00  
 258    7:20  213.0    75   81.9     3    351.3     4.2    999.0   0.00  
 258    7:30  241.0    76   81.6     2    331.5     3.6    999.0   0.00  
 258    7:40  268.0    76   80.7     3    355.6     4.8    999.0   0.00  
 258    7:50  295.0    76   80.3     4    331.2     6.6    999.0   0.00  
 258    8:00  321.0    76   81.0     5    342.9     7.8    999.0   0.00  
 258    8:10  347.0    76   80.6     6    338.4     7.8    999.0   0.00  
 258    8:20  373.0    77   80.0     5    333.4     7.8    999.0   0.00  
 258    8:30  398.0    78   78.2     6    356.7     8.4    999.0   0.00  
 258    8:40  422.0    78   78.8     7    355.1     9.0    999.0   0.00  
 258    8:50  445.0    78   77.7     5      2.9     9.0    999.0   0.00  
 258    9:00  467.0    78   78.2     7      0.5     9.6    999.0   0.00  
 258    9:10  489.0    77   79.8     7    350.2     9.6    999.0   0.00  
 258    9:20  509.0    77   79.2     8      1.7    10.2    999.0   0.00  
 258    9:30  529.0    77   80.1     9    351.7    11.3    999.0   0.00  
 258    9:40  548.0    77   79.6     9    353.0    10.8    999.0   0.00  
 258    9:50  567.0    78   79.1     7    354.6     9.6    999.0   0.00  
 258   10:00  584.0    79   77.6     8    359.3    10.8    999.0   0.00  
 258   10:10  598.0    77   80.7     9    353.4    11.3    999.0   0.00  
 258   10:20  612.0    77   82.1     7    345.1     9.6    999.0   0.00  
 258   10:30  625.0    77   81.9     8    350.9    10.8    999.0   0.00  
 258   10:40  637.0    78   81.1     8    351.8    11.3    999.0   0.00  
 258   10:50  647.0    78   79.8    10    346.3    12.5    999.0   0.00  
 258   11:00  657.0    78   80.0    10    342.3    12.5    999.0   0.00  
 258   11:10  664.0    78   79.6    10    335.5    13.1    999.0   0.00  
 258   11:20  669.0    78   78.4    11    331.6    14.3    999.0   0.00  
 258   11:30  674.0    77   79.8    10    341.7    13.1    999.0   0.00  
 258   11:40  677.0    78   78.6     9    343.3    13.1    999.0   0.00  
 258   11:50  680.0    79   74.1     9    347.7    11.9    999.0   0.00  
 258   12:00  681.0    81   68.8     9    334.4    12.5    999.0   0.00  
 258   12:10  679.0    79   71.2     9    336.3    12.5    999.0   0.00  
 258   12:20  678.0    80   72.1     8    345.0    10.8    999.0   0.00  
 258   12:30  674.0    80   71.1     9    336.2    12.5    999.0   0.00  
 258   12:40  668.0    80   71.8     8    351.2    10.8    999.0   0.00  
 258   12:50  661.0    80   72.9     8    358.0    10.2    999.0   0.00  
 258   13:00  653.0    80   71.6     7      5.1     8.4    999.0   0.00  
 258   13:10  644.0    82   66.9     6      8.2     8.4    999.0   0.00  
 258   13:20  635.0    86   61.6     5    341.9     8.4    999.0   0.00  
 258   13:30  623.0    86   60.3     8    324.6    12.5    999.0   0.00  
 258   13:40  609.0    87   55.0    11    316.4    13.7    999.0   0.00  
 258   13:50  595.0    88   51.2    10    312.7    13.7    999.0   0.00  
 258   14:00  579.0    88   50.3    10    307.2    14.3    999.0   0.00  
 258   14:10  561.0    87   51.2    10    307.7    14.9    999.0   0.00  
 258   14:20  541.0    87   51.7    12    312.3    16.1    999.0   0.00  
 258   14:30  520.0    87   52.6    11    311.3    16.1    999.0   0.00  
 258   14:40  498.0    86   55.2    10    312.7    14.9    999.0   0.00  
 258   14:50  477.0    87   49.9    10    309.3    15.5    999.0   0.00  
 258   15:00  455.0    89   45.7    10    305.5    16.1    999.0   0.00  
 258   15:10  431.0    88   45.0    11    309.7    17.9    999.0   0.00  
 258   15:20  406.0    89   40.3    13    291.7    22.7    999.0   0.00  
 258   15:30  380.0    89   37.9    14    282.7    22.1    999.0   0.00  
 258   15:40  354.0    90   35.6    16    271.4    22.7    999.0   0.00  
 258   15:50  328.0    90   35.1    16    272.5    26.8    999.0   0.00  
 258   16:00  299.0    88   37.3    20    274.2    30.4    999.0   0.00  
 258   16:10  271.0    89   37.1    16    271.7    27.4    999.0   0.00  
 258   16:20  244.0    91   35.2    14    273.0    23.3    999.0   0.00  
 258   16:30  216.0    91   35.8    15    271.9    26.8    999.0   0.00  
 258   16:40  188.0    89   37.3    18    259.3    27.4    999.0   0.00  
 258   16:50  162.0    88   38.0    17    259.7    27.4    999.0   0.00  
 258   17:00  136.0    89   37.8    16    267.9    25.6    999.0   0.00  
 258   17:10  110.0    88   38.2    18    268.1    27.4    999.0   0.00  
 258   17:20   86.0    88   39.3    18    270.6    28.0    999.0   0.00  
 258   17:30   42.0    88   37.9    19    267.7    30.4    999.0   0.00  
 258   17:40   14.0    88   37.5    20    271.1    29.2    999.0   0.00  
 258   17:50   11.0    88   37.6    21    270.6    33.4    999.0   0.00  
 258   18:00    7.0    88   37.9    18    267.9    32.8    999.0   0.00  
 258   18:10    3.0    87   38.3    17    273.4    27.4    999.0   0.00  
 258   18:20    0.0    88   38.3    18    271.0    28.0    999.0   0.00  
 258   18:30    0.0    87   38.3    21    269.4    34.6    999.0   0.00  
 258   18:40    0.0    87   38.3    18    272.5    26.8    999.0   0.00  
 258   18:50    0.0    88   38.3    18    269.0    31.6    999.0   0.00  
 258   19:00    0.0    87   38.9    17    265.0    28.0    999.0   0.00  
 258   19:10    0.0    87   38.8    17    266.3    28.0    999.0   0.00  
 258   19:20    0.0    86   39.2    18    265.4    28.0    999.0   0.00  
 258   19:30    0.0    86   38.9    18    266.7    26.2    999.0   0.00  
 258   19:40    0.0    87   38.5    17    270.2    29.8    999.0   0.00  
 258   19:50    0.0    86   38.5    16    267.5    25.6    999.0   0.00  
 258   20:00    0.0    86   37.5    17    266.0    28.0    999.0   0.00  
 258   20:10    0.0    87   36.9    16    269.2    23.9    999.0   0.00  
 258   20:20    0.0    87   37.3    17    270.6    29.8    999.0   0.00  
 258   20:30    0.0    87   38.3    19    267.5    27.4    999.0   0.00  
 258   20:40    0.0    88   37.1    24    269.2    33.4    999.0   0.00  
 258   20:50    0.0    87   37.9    21    272.2    30.4    999.0   0.00  
 258   21:00    0.0    86   38.9    17    271.2    28.6    999.0   0.00  
 258   21:10    0.0    85   38.4    17    261.5    25.6    999.0   0.00  
 258   21:20    0.0    86   37.5    19    268.6    32.2    999.0   0.00  
 258   21:30    0.0    87   36.2    18    272.8    32.2    999.0   0.00  

Return to Parsons Landing graphs page.


Western Regional Climate Center,wrcc@dri.edu